sensor_id;sensor_type;location;lat;lon;timestamp;temperature;humidity
2889;DHT22;1453;42.708;23.282;2022-07-15T00:00:46;18.90;99.90
2889;DHT22;1453;42.708;23.282;2022-07-15T00:03:11;18.90;99.90
2889;DHT22;1453;42.708;23.282;2022-07-15T00:05:37;18.80;99.90
2889;DHT22;1453;42.708;23.282;2022-07-15T00:08:04;18.70;99.90
2889;DHT22;1453;42.708;23.282;2022-07-15T00:10:30;18.70;99.90
2889;DHT22;1453;42.708;23.282;2022-07-15T00:12:58;18.60;99.90
2889;DHT22;1453;42.708;23.282;2022-07-15T00:15:27;18.70;99.90
2889;DHT22;1453;42.708;23.282;2022-07-15T00:17:55;18.70;99.90
2889;DHT22;1453;42.708;23.282;2022-07-15T00:20:27;18.60;99.90
2889;DHT22;1453;42.708;23.282;2022-07-15T00:23:00;18.40;99.90
2889;DHT22;1453;42.708;23.282;2022-07-15T00:25:29;18.30;99.90
2889;DHT22;1453;42.708;23.282;2022-07-15T00:28:00;18.20;99.90
2889;DHT22;1453;42.708;23.282;2022-07-15T00:30:38;18.20;99.90
2889;DHT22;1453;42.708;23.282;2022-07-15T00:33:06;18.20;99.90
2889;DHT22;1453;42.708;23.282;2022-07-15T00:35:33;18.00;99.90
2889;DHT22;1453;42.708;23.282;2022-07-15T00:38:00;17.90;99.90
2889;DHT22;1453;42.708;23.282;2022-07-15T00:40:27;17.90;99.90
2889;DHT22;1453;42.708;23.282;2022-07-15T00:42:53;17.60;99.90
2889;DHT22;1453;42.708;23.282;2022-07-15T00:45:21;17.70;99.90
2889;DHT22;1453;42.708;23.282;2022-07-15T00:47:50;17.70;99.90
2889;DHT22;1453;42.708;23.282;2022-07-15T00:50:27;17.80;99.90
2889;DHT22;1453;42.708;23.282;2022-07-15T00:53:06;17.90;99.90
2889;DHT22;1453;42.708;23.282;2022-07-15T00:55:40;18.00;99.90
2889;DHT22;1453;42.708;23.282;2022-07-15T00:58:11;17.90;99.90
2889;DHT22;1453;42.708;23.282;2022-07-15T01:00:42;18.00;99.90
2889;DHT22;1453;42.708;23.282;2022-07-15T01:03:09;18.00;99.90
2889;DHT22;1453;42.708;23.282;2022-07-15T01:05:36;18.10;99.90
2889;DHT22;1453;42.708;23.282;2022-07-15T01:08:02;18.00;99.90
2889;DHT22;1453;42.708;23.282;2022-07-15T01:10:29;18.10;99.90
2889;DHT22;1453;42.708;23.282;2022-07-15T01:12:55;18.10;99.90
2889;DHT22;1453;42.708;23.282;2022-07-15T01:15:21;18.20;99.90
2889;DHT22;1453;42.708;23.282;2022-07-15T01:17:47;18.30;99.90
2889;DHT22;1453;42.708;23.282;2022-07-15T01:20:14;18.10;99.90
2889;DHT22;1453;42.708;23.282;2022-07-15T01:22:41;18.30;99.90
2889;DHT22;1453;42.708;23.282;2022-07-15T01:25:07;18.20;99.90
2889;DHT22;1453;42.708;23.282;2022-07-15T01:27:33;18.10;99.90
2889;DHT22;1453;42.708;23.282;2022-07-15T01:29:59;17.90;99.90
2889;DHT22;1453;42.708;23.282;2022-07-15T01:32:27;17.80;99.90
2889;DHT22;1453;42.708;23.282;2022-07-15T01:34:53;17.90;99.90
2889;DHT22;1453;42.708;23.282;2022-07-15T01:37:19;17.80;99.90
2889;DHT22;1453;42.708;23.282;2022-07-15T01:39:45;17.80;99.90
2889;DHT22;1453;42.708;23.282;2022-07-15T01:42:11;17.90;99.90
2889;DHT22;1453;42.708;23.282;2022-07-15T01:44:37;18.00;99.90
2889;DHT22;1453;42.708;23.282;2022-07-15T01:47:03;17.90;99.90
2889;DHT22;1453;42.708;23.282;2022-07-15T01:49:29;17.90;99.90
2889;DHT22;1453;42.708;23.282;2022-07-15T01:51:58;17.90;99.90
2889;DHT22;1453;42.708;23.282;2022-07-15T01:54:26;17.80;99.90
2889;DHT22;1453;42.708;23.282;2022-07-15T01:56:53;17.80;99.90
2889;DHT22;1453;42.708;23.282;2022-07-15T01:59:20;17.80;99.90
2889;DHT22;1453;42.708;23.282;2022-07-15T02:01:51;17.80;99.90
2889;DHT22;1453;42.708;23.282;2022-07-15T02:04:18;17.90;99.90
2889;DHT22;1453;42.708;23.282;2022-07-15T02:06:45;17.90;99.90
2889;DHT22;1453;42.708;23.282;2022-07-15T02:09:11;17.90;99.90
2889;DHT22;1453;42.708;23.282;2022-07-15T02:11:37;17.80;99.90
2889;DHT22;1453;42.708;23.282;2022-07-15T02:14:03;17.70;99.90
2889;DHT22;1453;42.708;23.282;2022-07-15T02:16:30;17.70;99.90
2889;DHT22;1453;42.708;23.282;2022-07-15T02:18:56;17.70;99.90
2889;DHT22;1453;42.708;23.282;2022-07-15T02:21:23;17.30;99.90
2889;DHT22;1453;42.708;23.282;2022-07-15T02:23:55;17.20;99.90
2889;DHT22;1453;42.708;23.282;2022-07-15T02:26:22;17.30;99.90
2889;DHT22;1453;42.708;23.282;2022-07-15T02:28:48;17.30;99.90
2889;DHT22;1453;42.708;23.282;2022-07-15T02:31:14;17.40;99.90
2889;DHT22;1453;42.708;23.282;2022-07-15T02:33:40;17.40;99.90
2889;DHT22;1453;42.708;23.282;2022-07-15T02:36:10;17.40;99.90
2889;DHT22;1453;42.708;23.282;2022-07-15T02:38:36;17.30;99.90
2889;DHT22;1453;42.708;23.282;2022-07-15T02:41:02;17.30;99.90
2889;DHT22;1453;42.708;23.282;2022-07-15T02:43:29;17.30;99.90
2889;DHT22;1453;42.708;23.282;2022-07-15T02:45:55;17.20;99.90
2889;DHT22;1453;42.708;23.282;2022-07-15T02:48:22;17.10;99.90
2889;DHT22;1453;42.708;23.282;2022-07-15T02:50:48;17.10;99.90
2889;DHT22;1453;42.708;23.282;2022-07-15T02:53:14;17.10;99.90
2889;DHT22;1453;42.708;23.282;2022-07-15T02:55:41;17.10;99.90
2889;DHT22;1453;42.708;23.282;2022-07-15T02:58:07;17.00;99.90
2889;DHT22;1453;42.708;23.282;2022-07-15T03:00:32;17.00;99.90
2889;DHT22;1453;42.708;23.282;2022-07-15T03:02:58;17.00;99.90
2889;DHT22;1453;42.708;23.282;2022-07-15T03:05:25;16.90;99.90
2889;DHT22;1453;42.708;23.282;2022-07-15T03:07:51;16.90;99.90
2889;DHT22;1453;42.708;23.282;2022-07-15T03:10:17;16.80;99.90
2889;DHT22;1453;42.708;23.282;2022-07-15T03:12:43;16.80;99.90
2889;DHT22;1453;42.708;23.282;2022-07-15T03:15:09;16.80;99.90
2889;DHT22;1453;42.708;23.282;2022-07-15T03:17:37;16.70;99.90
2889;DHT22;1453;42.708;23.282;2022-07-15T03:20:06;16.60;99.90
2889;DHT22;1453;42.708;23.282;2022-07-15T03:22:33;16.60;99.90
2889;DHT22;1453;42.708;23.282;2022-07-15T03:24:59;16.50;99.90
2889;DHT22;1453;42.708;23.282;2022-07-15T03:27:25;16.60;99.90
2889;DHT22;1453;42.708;23.282;2022-07-15T03:29:50;16.60;99.90
2889;DHT22;1453;42.708;23.282;2022-07-15T03:32:17;16.60;99.90
2889;DHT22;1453;42.708;23.282;2022-07-15T03:34:45;16.70;99.90
2889;DHT22;1453;42.708;23.282;2022-07-15T03:37:11;16.70;99.90
2889;DHT22;1453;42.708;23.282;2022-07-15T03:39:37;16.70;99.90
2889;DHT22;1453;42.708;23.282;2022-07-15T03:42:03;16.80;99.90
2889;DHT22;1453;42.708;23.282;2022-07-15T03:44:29;16.80;99.90
2889;DHT22;1453;42.708;23.282;2022-07-15T03:46:54;16.70;99.90
2889;DHT22;1453;42.708;23.282;2022-07-15T03:49:20;16.60;99.90
2889;DHT22;1453;42.708;23.282;2022-07-15T03:51:46;16.60;99.90
2889;DHT22;1453;42.708;23.282;2022-07-15T03:54:12;16.50;99.90
2889;DHT22;1453;42.708;23.282;2022-07-15T03:56:38;16.60;99.90
2889;DHT22;1453;42.708;23.282;2022-07-15T03:59:04;16.70;99.90
2889;DHT22;1453;42.708;23.282;2022-07-15T04:01:32;16.60;99.90
2889;DHT22;1453;42.708;23.282;2022-07-15T04:03:58;16.60;99.90
2889;DHT22;1453;42.708;23.282;2022-07-15T04:06:24;16.60;99.90
2889;DHT22;1453;42.708;23.282;2022-07-15T04:08:50;16.70;99.90
2889;DHT22;1453;42.708;23.282;2022-07-15T04:11:17;16.80;99.90
2889;DHT22;1453;42.708;23.282;2022-07-15T04:13:43;16.80;99.90
2889;DHT22;1453;42.708;23.282;2022-07-15T04:16:10;16.80;99.90
2889;DHT22;1453;42.708;23.282;2022-07-15T04:18:39;16.80;99.90
2889;DHT22;1453;42.708;23.282;2022-07-15T04:21:05;17.10;99.90
2889;DHT22;1453;42.708;23.282;2022-07-15T04:23:31;17.00;99.90
2889;DHT22;1453;42.708;23.282;2022-07-15T04:25:57;17.00;99.90
2889;DHT22;1453;42.708;23.282;2022-07-15T04:28:24;17.10;99.90
2889;DHT22;1453;42.708;23.282;2022-07-15T04:30:50;17.30;99.90
2889;DHT22;1453;42.708;23.282;2022-07-15T04:33:17;17.00;99.90
2889;DHT22;1453;42.708;23.282;2022-07-15T04:35:43;17.00;99.90
2889;DHT22;1453;42.708;23.282;2022-07-15T04:38:09;17.10;99.90
2889;DHT22;1453;42.708;23.282;2022-07-15T04:40:35;17.40;99.90
2889;DHT22;1453;42.708;23.282;2022-07-15T04:43:02;17.50;99.90
2889;DHT22;1453;42.708;23.282;2022-07-15T04:45:28;17.60;99.90
2889;DHT22;1453;42.708;23.282;2022-07-15T04:47:54;17.70;99.90
2889;DHT22;1453;42.708;23.282;2022-07-15T04:50:21;17.80;99.90
2889;DHT22;1453;42.708;23.282;2022-07-15T04:53:05;18.00;99.90
2889;DHT22;1453;42.708;23.282;2022-07-15T04:55:31;18.20;99.90
2889;DHT22;1453;42.708;23.282;2022-07-15T04:57:57;18.30;99.90
2889;DHT22;1453;42.708;23.282;2022-07-15T05:00:23;18.30;99.90
2889;DHT22;1453;42.708;23.282;2022-07-15T05:02:49;18.40;99.90
2889;DHT22;1453;42.708;23.282;2022-07-15T05:05:15;18.40;99.90
2889;DHT22;1453;42.708;23.282;2022-07-15T05:07:41;18.40;99.90
2889;DHT22;1453;42.708;23.282;2022-07-15T05:10:08;18.40;99.90
2889;DHT22;1453;42.708;23.282;2022-07-15T05:12:35;18.50;99.90
2889;DHT22;1453;42.708;23.282;2022-07-15T05:15:01;18.60;99.90
2889;DHT22;1453;42.708;23.282;2022-07-15T05:17:28;18.80;99.90
2889;DHT22;1453;42.708;23.282;2022-07-15T05:19:54;18.60;99.90
2889;DHT22;1453;42.708;23.282;2022-07-15T05:22:20;18.60;99.90
2889;DHT22;1453;42.708;23.282;2022-07-15T05:24:46;18.70;99.90
2889;DHT22;1453;42.708;23.282;2022-07-15T05:27:12;19.00;99.90
2889;DHT22;1453;42.708;23.282;2022-07-15T05:29:38;19.10;99.90
2889;DHT22;1453;42.708;23.282;2022-07-15T05:32:04;19.20;99.90
2889;DHT22;1453;42.708;23.282;2022-07-15T05:34:30;19.40;99.90
2889;DHT22;1453;42.708;23.282;2022-07-15T05:36:56;19.70;99.90
2889;DHT22;1453;42.708;23.282;2022-07-15T05:39:22;19.90;99.90
2889;DHT22;1453;42.708;23.282;2022-07-15T05:41:48;20.30;99.90
2889;DHT22;1453;42.708;23.282;2022-07-15T05:44:14;20.80;99.90
2889;DHT22;1453;42.708;23.282;2022-07-15T05:46:40;20.90;99.90
2889;DHT22;1453;42.708;23.282;2022-07-15T05:49:06;21.10;99.90
2889;DHT22;1453;42.708;23.282;2022-07-15T05:51:32;21.60;99.90
2889;DHT22;1453;42.708;23.282;2022-07-15T05:53:59;21.40;99.90
2889;DHT22;1453;42.708;23.282;2022-07-15T05:56:26;21.40;99.90
2889;DHT22;1453;42.708;23.282;2022-07-15T05:58:51;21.90;99.90
2889;DHT22;1453;42.708;23.282;2022-07-15T06:01:17;23.00;99.90
2889;DHT22;1453;42.708;23.282;2022-07-15T06:03:43;22.10;99.90
2889;DHT22;1453;42.708;23.282;2022-07-15T06:06:09;22.00;99.90
2889;DHT22;1453;42.708;23.282;2022-07-15T06:08:35;22.20;99.90
2889;DHT22;1453;42.708;23.282;2022-07-15T06:11:01;22.60;99.90
2889;DHT22;1453;42.708;23.282;2022-07-15T06:13:27;23.20;99.90
2889;DHT22;1453;42.708;23.282;2022-07-15T06:15:53;23.50;99.90
2889;DHT22;1453;42.708;23.282;2022-07-15T06:18:19;24.00;99.20
2889;DHT22;1453;42.708;23.282;2022-07-15T06:20:45;23.10;99.90
2889;DHT22;1453;42.708;23.282;2022-07-15T06:23:11;24.00;98.90
2889;DHT22;1453;42.708;23.282;2022-07-15T06:25:37;23.70;98.20
2889;DHT22;1453;42.708;23.282;2022-07-15T06:28:03;23.90;98.10
2889;DHT22;1453;42.708;23.282;2022-07-15T06:30:29;24.00;96.90
2889;DHT22;1453;42.708;23.282;2022-07-15T06:32:56;24.20;97.30
2889;DHT22;1453;42.708;23.282;2022-07-15T06:35:23;24.40;95.20
2889;DHT22;1453;42.708;23.282;2022-07-15T06:37:49;23.40;97.10
2889;DHT22;1453;42.708;23.282;2022-07-15T06:40:16;24.20;96.70
2889;DHT22;1453;42.708;23.282;2022-07-15T06:42:42;24.20;96.70
2889;DHT22;1453;42.708;23.282;2022-07-15T06:45:09;24.00;96.50
2889;DHT22;1453;42.708;23.282;2022-07-15T06:47:38;24.40;95.70
2889;DHT22;1453;42.708;23.282;2022-07-15T06:50:05;24.30;94.80
2889;DHT22;1453;42.708;23.282;2022-07-15T06:52:31;24.00;96.30
2889;DHT22;1453;42.708;23.282;2022-07-15T06:54:57;23.80;96.00
2889;DHT22;1453;42.708;23.282;2022-07-15T06:57:23;23.40;96.30
2889;DHT22;1453;42.708;23.282;2022-07-15T06:59:49;23.50;97.10
2889;DHT22;1453;42.708;23.282;2022-07-15T07:02:14;24.60;95.90
2889;DHT22;1453;42.708;23.282;2022-07-15T07:04:41;25.40;92.70
2889;DHT22;1453;42.708;23.282;2022-07-15T07:07:08;25.70;92.70
2889;DHT22;1453;42.708;23.282;2022-07-15T07:09:34;25.20;91.90
2889;DHT22;1453;42.708;23.282;2022-07-15T07:11:59;25.10;92.10
2889;DHT22;1453;42.708;23.282;2022-07-15T07:14:25;26.10;91.90
2889;DHT22;1453;42.708;23.282;2022-07-15T07:16:51;25.60;91.30
2889;DHT22;1453;42.708;23.282;2022-07-15T07:19:17;26.60;90.60
2889;DHT22;1453;42.708;23.282;2022-07-15T07:21:43;27.70;86.60
2889;DHT22;1453;42.708;23.282;2022-07-15T07:24:09;27.70;82.60
2889;DHT22;1453;42.708;23.282;2022-07-15T07:26:34;26.40;86.40
2889;DHT22;1453;42.708;23.282;2022-07-15T07:29:00;26.40;86.40
2889;DHT22;1453;42.708;23.282;2022-07-15T07:31:26;26.10;88.20
2889;DHT22;1453;42.708;23.282;2022-07-15T07:33:56;27.10;86.50
2889;DHT22;1453;42.708;23.282;2022-07-15T07:36:24;27.10;86.60
2889;DHT22;1453;42.708;23.282;2022-07-15T07:38:50;27.40;84.00
2889;DHT22;1453;42.708;23.282;2022-07-15T07:41:16;27.50;82.60
2889;DHT22;1453;42.708;23.282;2022-07-15T07:43:42;27.40;83.30
2889;DHT22;1453;42.708;23.282;2022-07-15T07:46:10;28.10;82.50
2889;DHT22;1453;42.708;23.282;2022-07-15T07:48:38;29.10;80.10
2889;DHT22;1453;42.708;23.282;2022-07-15T07:51:05;28.80;77.20
2889;DHT22;1453;42.708;23.282;2022-07-15T07:53:31;28.60;76.70
2889;DHT22;1453;42.708;23.282;2022-07-15T07:55:57;28.60;77.00
2889;DHT22;1453;42.708;23.282;2022-07-15T07:58:23;28.50;75.50
2889;DHT22;1453;42.708;23.282;2022-07-15T08:00:49;29.00;76.00
2889;DHT22;1453;42.708;23.282;2022-07-15T08:03:17;29.60;73.70
2889;DHT22;1453;42.708;23.282;2022-07-15T08:05:43;29.40;72.60
2889;DHT22;1453;42.708;23.282;2022-07-15T08:08:14;29.70;70.60
2889;DHT22;1453;42.708;23.282;2022-07-15T08:10:44;29.30;71.50
2889;DHT22;1453;42.708;23.282;2022-07-15T08:13:12;28.50;72.10
2889;DHT22;1453;42.708;23.282;2022-07-15T08:15:41;29.00;72.30
2889;DHT22;1453;42.708;23.282;2022-07-15T08:18:07;29.60;71.70
2889;DHT22;1453;42.708;23.282;2022-07-15T08:20:33;30.00;71.20
2889;DHT22;1453;42.708;23.282;2022-07-15T08:23:02;29.90;69.00
2889;DHT22;1453;42.708;23.282;2022-07-15T08:25:30;29.40;70.50
2889;DHT22;1453;42.708;23.282;2022-07-15T08:27:58;30.40;68.60
2889;DHT22;1453;42.708;23.282;2022-07-15T08:30:27;30.00;66.90
2889;DHT22;1453;42.708;23.282;2022-07-15T08:32:53;29.80;68.20
2889;DHT22;1453;42.708;23.282;2022-07-15T08:35:20;30.90;66.80
2889;DHT22;1453;42.708;23.282;2022-07-15T08:37:47;30.50;64.80
2889;DHT22;1453;42.708;23.282;2022-07-15T08:40:14;30.20;65.90
2889;DHT22;1453;42.708;23.282;2022-07-15T08:42:42;30.70;63.40
2889;DHT22;1453;42.708;23.282;2022-07-15T08:45:12;31.20;62.10
2889;DHT22;1453;42.708;23.282;2022-07-15T08:47:41;30.70;64.80
2889;DHT22;1453;42.708;23.282;2022-07-15T08:50:10;31.80;63.80
2889;DHT22;1453;42.708;23.282;2022-07-15T08:52:38;32.80;61.30
2889;DHT22;1453;42.708;23.282;2022-07-15T08:55:06;33.00;59.70
2889;DHT22;1453;42.708;23.282;2022-07-15T08:57:33;31.80;59.20
2889;DHT22;1453;42.708;23.282;2022-07-15T08:59:59;31.70;59.20
2889;DHT22;1453;42.708;23.282;2022-07-15T09:02:25;32.50;58.20
2889;DHT22;1453;42.708;23.282;2022-07-15T09:13:37;31.70;55.80
2889;DHT22;1453;42.708;23.282;2022-07-15T09:16:14;32.20;56.60
2889;DHT22;1453;42.708;23.282;2022-07-15T09:18:49;31.90;56.30
2889;DHT22;1453;42.708;23.282;2022-07-15T09:21:23;32.10;57.70
2889;DHT22;1453;42.708;23.282;2022-07-15T09:23:51;32.00;57.10
2889;DHT22;1453;42.708;23.282;2022-07-15T09:26:26;32.40;57.20
2889;DHT22;1453;42.708;23.282;2022-07-15T09:28:59;33.40;55.70
2889;DHT22;1453;42.708;23.282;2022-07-15T09:31:36;33.20;54.80
2889;DHT22;1453;42.708;23.282;2022-07-15T09:34:23;33.00;54.60
2889;DHT22;1453;42.708;23.282;2022-07-15T09:36:52;33.20;54.10
2889;DHT22;1453;42.708;23.282;2022-07-15T09:39:24;33.90;55.00
2889;DHT22;1453;42.708;23.282;2022-07-15T09:41:51;32.80;54.40
2889;DHT22;1453;42.708;23.282;2022-07-15T09:44:20;32.40;53.50
2889;DHT22;1453;42.708;23.282;2022-07-15T09:46:58;32.40;55.80
2889;DHT22;1453;42.708;23.282;2022-07-15T09:54:31;31.40;54.10
2889;DHT22;1453;42.708;23.282;2022-07-15T09:57:03;31.10;54.20
2889;DHT22;1453;42.708;23.282;2022-07-15T09:59:31;31.90;54.40
2889;DHT22;1453;42.708;23.282;2022-07-15T10:01:58;32.60;52.70
2889;DHT22;1453;42.708;23.282;2022-07-15T10:04:27;32.60;51.10
2889;DHT22;1453;42.708;23.282;2022-07-15T10:06:56;32.30;52.30
2889;DHT22;1453;42.708;23.282;2022-07-15T10:09:30;32.00;51.90
2889;DHT22;1453;42.708;23.282;2022-07-15T10:12:04;32.10;51.80
2889;DHT22;1453;42.708;23.282;2022-07-15T10:15:02;32.00;51.90
2889;DHT22;1453;42.708;23.282;2022-07-15T10:29:42;33.80;52.20
2889;DHT22;1453;42.708;23.282;2022-07-15T10:32:08;34.40;51.50
2889;DHT22;1453;42.708;23.282;2022-07-15T10:34:38;34.00;50.50
2889;DHT22;1453;42.708;23.282;2022-07-15T10:37:11;34.30;49.90
2889;DHT22;1453;42.708;23.282;2022-07-15T10:39:58;34.00;49.70
2889;DHT22;1453;42.708;23.282;2022-07-15T10:43:00;33.40;49.20
2889;DHT22;1453;42.708;23.282;2022-07-15T10:45:27;33.30;49.70
2889;DHT22;1453;42.708;23.282;2022-07-15T10:48:25;31.50;52.20
2889;DHT22;1453;42.708;23.282;2022-07-15T10:50:55;31.60;52.90
2889;DHT22;1453;42.708;23.282;2022-07-15T10:53:25;33.20;52.00
2889;DHT22;1453;42.708;23.282;2022-07-15T10:55:53;33.10;50.60
2889;DHT22;1453;42.708;23.282;2022-07-15T10:58:19;33.30;50.50
2889;DHT22;1453;42.708;23.282;2022-07-15T11:00:46;33.10;50.30
2889;DHT22;1453;42.708;23.282;2022-07-15T11:03:15;33.20;50.70
2889;DHT22;1453;42.708;23.282;2022-07-15T11:13:45;34.20;49.70
2889;DHT22;1453;42.708;23.282;2022-07-15T11:16:13;34.10;49.30
2889;DHT22;1453;42.708;23.282;2022-07-15T11:21:16;33.80;48.00
2889;DHT22;1453;42.708;23.282;2022-07-15T11:23:47;34.30;48.20
2889;DHT22;1453;42.708;23.282;2022-07-15T11:26:16;33.60;47.40
2889;DHT22;1453;42.708;23.282;2022-07-15T11:28:53;33.70;48.30
2889;DHT22;1453;42.708;23.282;2022-07-15T11:31:20;34.10;46.90
2889;DHT22;1453;42.708;23.282;2022-07-15T11:33:53;34.60;47.10
2889;DHT22;1453;42.708;23.282;2022-07-15T11:36:21;34.30;46.70
2889;DHT22;1453;42.708;23.282;2022-07-15T11:38:48;35.00;47.90
2889;DHT22;1453;42.708;23.282;2022-07-15T11:41:14;35.10;47.50
2889;DHT22;1453;42.708;23.282;2022-07-15T11:43:59;35.30;47.80
2889;DHT22;1453;42.708;23.282;2022-07-15T11:46:50;34.60;46.30
2889;DHT22;1453;42.708;23.282;2022-07-15T11:49:32;35.20;46.40
2889;DHT22;1453;42.708;23.282;2022-07-15T11:52:05;34.70;47.10
2889;DHT22;1453;42.708;23.282;2022-07-15T11:54:34;34.30;46.50
2889;DHT22;1453;42.708;23.282;2022-07-15T11:57:03;33.40;47.30
2889;DHT22;1453;42.708;23.282;2022-07-15T11:59:35;33.40;46.80
2889;DHT22;1453;42.708;23.282;2022-07-15T12:02:06;33.10;47.10
2889;DHT22;1453;42.708;23.282;2022-07-15T12:04:33;32.70;47.80
2889;DHT22;1453;42.708;23.282;2022-07-15T12:06:59;32.80;47.50
2889;DHT22;1453;42.708;23.282;2022-07-15T12:09:26;33.00;46.90
2889;DHT22;1453;42.708;23.282;2022-07-15T12:11:52;34.00;47.50
2889;DHT22;1453;42.708;23.282;2022-07-15T12:14:21;34.20;45.50
2889;DHT22;1453;42.708;23.282;2022-07-15T12:16:50;34.50;47.10
2889;DHT22;1453;42.708;23.282;2022-07-15T12:19:19;35.50;47.30
2889;DHT22;1453;42.708;23.282;2022-07-15T12:21:49;35.70;46.50
2889;DHT22;1453;42.708;23.282;2022-07-15T12:24:21;35.90;47.50
2889;DHT22;1453;42.708;23.282;2022-07-15T12:29:18;34.80;46.00
2889;DHT22;1453;42.708;23.282;2022-07-15T12:37:18;34.90;46.80
2889;DHT22;1453;42.708;23.282;2022-07-15T12:40:06;34.70;46.60
2889;DHT22;1453;42.708;23.282;2022-07-15T12:45:08;33.50;48.50
2889;DHT22;1453;42.708;23.282;2022-07-15T12:53:12;34.80;47.20
2889;DHT22;1453;42.708;23.282;2022-07-15T12:55:43;34.40;46.80
2889;DHT22;1453;42.708;23.282;2022-07-15T12:58:14;34.00;46.90
2889;DHT22;1453;42.708;23.282;2022-07-15T13:00:49;33.50;47.80
2889;DHT22;1453;42.708;23.282;2022-07-15T13:03:19;33.60;47.40
2889;DHT22;1453;42.708;23.282;2022-07-15T13:05:54;33.50;47.80
2889;DHT22;1453;42.708;23.282;2022-07-15T13:08:32;33.40;48.90
2889;DHT22;1453;42.708;23.282;2022-07-15T13:11:02;33.70;47.60
2889;DHT22;1453;42.708;23.282;2022-07-15T13:13:34;33.60;47.10
2889;DHT22;1453;42.708;23.282;2022-07-15T13:16:03;32.90;48.20
2889;DHT22;1453;42.708;23.282;2022-07-15T13:18:30;33.20;48.80
2889;DHT22;1453;42.708;23.282;2022-07-15T13:20:57;32.90;48.90
2889;DHT22;1453;42.708;23.282;2022-07-15T13:23:24;33.30;49.60
2889;DHT22;1453;42.708;23.282;2022-07-15T13:25:52;33.50;48.50
2889;DHT22;1453;42.708;23.282;2022-07-15T13:28:20;34.00;47.70
2889;DHT22;1453;42.708;23.282;2022-07-15T13:30:46;34.20;46.90
2889;DHT22;1453;42.708;23.282;2022-07-15T13:33:13;34.10;47.00
2889;DHT22;1453;42.708;23.282;2022-07-15T13:35:39;32.40;47.50
2889;DHT22;1453;42.708;23.282;2022-07-15T13:38:04;31.60;50.00
2889;DHT22;1453;42.708;23.282;2022-07-15T13:40:30;32.50;50.20
2889;DHT22;1453;42.708;23.282;2022-07-15T13:42:56;33.20;49.40
2889;DHT22;1453;42.708;23.282;2022-07-15T13:45:22;33.80;48.80
2889;DHT22;1453;42.708;23.282;2022-07-15T13:47:48;33.50;49.10
2889;DHT22;1453;42.708;23.282;2022-07-15T13:50:14;33.20;48.90
2889;DHT22;1453;42.708;23.282;2022-07-15T13:53:00;32.90;49.20
2889;DHT22;1453;42.708;23.282;2022-07-15T13:55:26;32.20;49.00
2889;DHT22;1453;42.708;23.282;2022-07-15T13:57:52;31.80;50.30
2889;DHT22;1453;42.708;23.282;2022-07-15T14:00:20;31.80;50.30
2889;DHT22;1453;42.708;23.282;2022-07-15T14:02:48;32.00;50.50
2889;DHT22;1453;42.708;23.282;2022-07-15T14:05:15;32.30;51.20
2889;DHT22;1453;42.708;23.282;2022-07-15T14:07:42;32.50;50.20
2889;DHT22;1453;42.708;23.282;2022-07-15T14:10:08;32.30;50.20
2889;DHT22;1453;42.708;23.282;2022-07-15T14:12:35;31.90;50.00
2889;DHT22;1453;42.708;23.282;2022-07-15T14:15:01;31.80;50.50
2889;DHT22;1453;42.708;23.282;2022-07-15T14:17:27;32.00;51.40
2889;DHT22;1453;42.708;23.282;2022-07-15T14:19:54;32.20;51.40
2889;DHT22;1453;42.708;23.282;2022-07-15T14:22:21;32.20;51.20
2889;DHT22;1453;42.708;23.282;2022-07-15T14:24:47;32.30;52.10
2889;DHT22;1453;42.708;23.282;2022-07-15T14:27:13;32.40;51.90
2889;DHT22;1453;42.708;23.282;2022-07-15T14:29:40;32.50;51.10
2889;DHT22;1453;42.708;23.282;2022-07-15T14:32:06;32.20;50.80
2889;DHT22;1453;42.708;23.282;2022-07-15T14:34:32;32.00;51.20
2889;DHT22;1453;42.708;23.282;2022-07-15T14:36:58;31.80;52.00
2889;DHT22;1453;42.708;23.282;2022-07-15T14:39:24;31.90;51.60
2889;DHT22;1453;42.708;23.282;2022-07-15T14:41:50;32.00;51.80
2889;DHT22;1453;42.708;23.282;2022-07-15T14:44:16;31.80;51.00
2889;DHT22;1453;42.708;23.282;2022-07-15T14:46:42;31.40;51.40
2889;DHT22;1453;42.708;23.282;2022-07-15T14:49:07;31.90;51.20
2889;DHT22;1453;42.708;23.282;2022-07-15T14:51:33;31.90;50.50
2889;DHT22;1453;42.708;23.282;2022-07-15T14:53:59;32.40;50.90
2889;DHT22;1453;42.708;23.282;2022-07-15T14:56:25;32.60;50.90
2889;DHT22;1453;42.708;23.282;2022-07-15T14:58:51;32.60;50.50
2889;DHT22;1453;42.708;23.282;2022-07-15T15:01:16;32.00;50.60
2889;DHT22;1453;42.708;23.282;2022-07-15T15:03:43;32.20;51.10
2889;DHT22;1453;42.708;23.282;2022-07-15T15:06:09;32.30;50.30
2889;DHT22;1453;42.708;23.282;2022-07-15T15:08:35;32.20;50.20
2889;DHT22;1453;42.708;23.282;2022-07-15T15:11:01;32.20;50.40
2889;DHT22;1453;42.708;23.282;2022-07-15T15:13:27;31.50;50.00
2889;DHT22;1453;42.708;23.282;2022-07-15T15:15:53;31.50;51.30
2889;DHT22;1453;42.708;23.282;2022-07-15T15:18:19;31.70;50.90
2889;DHT22;1453;42.708;23.282;2022-07-15T15:20:45;31.90;51.20
2889;DHT22;1453;42.708;23.282;2022-07-15T15:23:10;32.10;51.30
2889;DHT22;1453;42.708;23.282;2022-07-15T15:25:36;32.10;49.70
2889;DHT22;1453;42.708;23.282;2022-07-15T15:28:21;31.80;49.90
2889;DHT22;1453;42.708;23.282;2022-07-15T15:30:47;31.70;50.50
2889;DHT22;1453;42.708;23.282;2022-07-15T15:33:13;31.30;50.00
2889;DHT22;1453;42.708;23.282;2022-07-15T15:35:38;31.40;49.80
2889;DHT22;1453;42.708;23.282;2022-07-15T15:38:04;31.30;50.60
2889;DHT22;1453;42.708;23.282;2022-07-15T15:40:30;31.50;50.40
2889;DHT22;1453;42.708;23.282;2022-07-15T15:42:56;31.80;49.80
2889;DHT22;1453;42.708;23.282;2022-07-15T15:45:22;31.50;50.30
2889;DHT22;1453;42.708;23.282;2022-07-15T15:47:48;31.60;50.10
2889;DHT22;1453;42.708;23.282;2022-07-15T15:50:14;31.70;49.30
2889;DHT22;1453;42.708;23.282;2022-07-15T15:52:40;31.80;49.70
2889;DHT22;1453;42.708;23.282;2022-07-15T15:55:06;32.00;49.60
2889;DHT22;1453;42.708;23.282;2022-07-15T15:57:32;31.70;49.30
2889;DHT22;1453;42.708;23.282;2022-07-15T16:00:00;31.20;50.20
2889;DHT22;1453;42.708;23.282;2022-07-15T16:02:26;30.90;50.80
2889;DHT22;1453;42.708;23.282;2022-07-15T16:04:52;30.70;50.40
2889;DHT22;1453;42.708;23.282;2022-07-15T16:07:18;30.50;50.30
2889;DHT22;1453;42.708;23.282;2022-07-15T16:09:44;30.50;50.60
2889;DHT22;1453;42.708;23.282;2022-07-15T16:12:10;30.70;50.60
2889;DHT22;1453;42.708;23.282;2022-07-15T16:14:35;30.70;50.60
2889;DHT22;1453;42.708;23.282;2022-07-15T16:17:01;30.90;51.00
2889;DHT22;1453;42.708;23.282;2022-07-15T16:19:27;31.00;50.30
2889;DHT22;1453;42.708;23.282;2022-07-15T16:21:53;30.50;50.80
2889;DHT22;1453;42.708;23.282;2022-07-15T16:24:37;30.50;51.50
2889;DHT22;1453;42.708;23.282;2022-07-15T16:27:04;30.50;51.50
2889;DHT22;1453;42.708;23.282;2022-07-15T16:29:30;30.50;51.50
2889;DHT22;1453;42.708;23.282;2022-07-15T16:31:56;30.10;51.50
2889;DHT22;1453;42.708;23.282;2022-07-15T16:34:22;30.10;51.40
2889;DHT22;1453;42.708;23.282;2022-07-15T16:36:48;30.10;51.80
2889;DHT22;1453;42.708;23.282;2022-07-15T16:39:13;29.90;51.40
2889;DHT22;1453;42.708;23.282;2022-07-15T16:41:39;30.00;51.50